sensor_id;sensor_type;location;lat;lon;timestamp;temperature;humidity
13389;DHT22;6764;53.250;10.410;2023-10-31T00:00:38;13.00;99.90
13389;DHT22;6764;53.250;10.410;2023-10-31T00:03:04;12.90;99.90
13389;DHT22;6764;53.250;10.410;2023-10-31T00:05:29;12.90;99.90
13389;DHT22;6764;53.250;10.410;2023-10-31T00:07:55;12.80;99.90
13389;DHT22;6764;53.250;10.410;2023-10-31T00:10:20;12.90;99.90
13389;DHT22;6764;53.250;10.410;2023-10-31T00:12:46;12.90;99.90
13389;DHT22;6764;53.250;10.410;2023-10-31T00:15:12;12.90;99.90
13389;DHT22;6764;53.250;10.410;2023-10-31T00:17:37;13.00;99.90
13389;DHT22;6764;53.250;10.410;2023-10-31T00:20:04;13.00;99.90
13389;DHT22;6764;53.250;10.410;2023-10-31T00:22:30;13.00;99.90
13389;DHT22;6764;53.250;10.410;2023-10-31T00:24:56;12.90;99.90
13389;DHT22;6764;53.250;10.410;2023-10-31T00:27:21;12.90;99.90
13389;DHT22;6764;53.250;10.410;2023-10-31T00:29:47;13.00;99.90
13389;DHT22;6764;53.250;10.410;2023-10-31T00:32:13;13.00;99.90
13389;DHT22;6764;53.250;10.410;2023-10-31T00:34:38;13.00;99.90
13389;DHT22;6764;53.250;10.410;2023-10-31T00:37:04;12.90;99.90
13389;DHT22;6764;53.250;10.410;2023-10-31T00:39:29;12.90;99.90
13389;DHT22;6764;53.250;10.410;2023-10-31T00:41:55;12.90;99.90
13389;DHT22;6764;53.250;10.410;2023-10-31T00:44:21;12.80;99.90
13389;DHT22;6764;53.250;10.410;2023-10-31T00:46:46;12.80;99.90
13389;DHT22;6764;53.250;10.410;2023-10-31T00:49:12;12.80;99.90
13389;DHT22;6764;53.250;10.410;2023-10-31T00:51:38;12.80;99.90
13389;DHT22;6764;53.250;10.410;2023-10-31T00:54:03;12.80;99.90
13389;DHT22;6764;53.250;10.410;2023-10-31T00:56:29;12.90;99.90
13389;DHT22;6764;53.250;10.410;2023-10-31T00:58:55;12.90;99.90
13389;DHT22;6764;53.250;10.410;2023-10-31T01:01:20;12.90;99.90
13389;DHT22;6764;53.250;10.410;2023-10-31T01:03:46;12.90;99.90
13389;DHT22;6764;53.250;10.410;2023-10-31T01:06:11;12.80;99.90
13389;DHT22;6764;53.250;10.410;2023-10-31T01:08:37;12.70;99.90
13389;DHT22;6764;53.250;10.410;2023-10-31T01:11:03;12.70;99.90
13389;DHT22;6764;53.250;10.410;2023-10-31T01:13:28;12.70;99.90
13389;DHT22;6764;53.250;10.410;2023-10-31T01:15:54;12.70;99.90
13389;DHT22;6764;53.250;10.410;2023-10-31T01:18:19;12.70;99.90
13389;DHT22;6764;53.250;10.410;2023-10-31T01:20:45;12.70;99.90
13389;DHT22;6764;53.250;10.410;2023-10-31T01:23:11;12.70;99.90
13389;DHT22;6764;53.250;10.410;2023-10-31T01:25:36;12.80;99.90
13389;DHT22;6764;53.250;10.410;2023-10-31T01:28:02;12.80;99.90
13389;DHT22;6764;53.250;10.410;2023-10-31T01:30:27;12.70;99.90
13389;DHT22;6764;53.250;10.410;2023-10-31T01:32:53;12.70;99.90
13389;DHT22;6764;53.250;10.410;2023-10-31T01:35:18;12.70;99.90
13389;DHT22;6764;53.250;10.410;2023-10-31T01:37:44;12.60;99.90
13389;DHT22;6764;53.250;10.410;2023-10-31T01:40:13;12.70;99.90
13389;DHT22;6764;53.250;10.410;2023-10-31T01:42:38;12.70;99.90
13389;DHT22;6764;53.250;10.410;2023-10-31T01:45:04;12.70;99.90
13389;DHT22;6764;53.250;10.410;2023-10-31T01:47:30;12.80;99.90
13389;DHT22;6764;53.250;10.410;2023-10-31T01:49:56;12.80;99.90
13389;DHT22;6764;53.250;10.410;2023-10-31T01:52:21;12.70;99.90
13389;DHT22;6764;53.250;10.410;2023-10-31T01:54:47;12.70;99.90
13389;DHT22;6764;53.250;10.410;2023-10-31T01:57:13;12.70;99.90
13389;DHT22;6764;53.250;10.410;2023-10-31T01:59:39;12.80;99.90
13389;DHT22;6764;53.250;10.410;2023-10-31T02:02:05;12.70;99.90
13389;DHT22;6764;53.250;10.410;2023-10-31T02:04:31;12.60;99.90
13389;DHT22;6764;53.250;10.410;2023-10-31T02:06:56;12.60;99.90
13389;DHT22;6764;53.250;10.410;2023-10-31T02:09:22;12.60;99.90
13389;DHT22;6764;53.250;10.410;2023-10-31T02:11:50;12.60;99.90
13389;DHT22;6764;53.250;10.410;2023-10-31T02:14:16;12.70;99.90
13389;DHT22;6764;53.250;10.410;2023-10-31T02:16:41;12.60;99.90
13389;DHT22;6764;53.250;10.410;2023-10-31T02:19:07;12.60;99.90
13389;DHT22;6764;53.250;10.410;2023-10-31T02:21:33;12.60;99.90
13389;DHT22;6764;53.250;10.410;2023-10-31T02:24:00;12.70;99.90
13389;DHT22;6764;53.250;10.410;2023-10-31T02:26:34;12.60;99.90
13389;DHT22;6764;53.250;10.410;2023-10-31T02:29:01;12.70;99.90
13389;DHT22;6764;53.250;10.410;2023-10-31T02:31:27;12.70;99.90
13389;DHT22;6764;53.250;10.410;2023-10-31T02:33:52;12.70;99.90
13389;DHT22;6764;53.250;10.410;2023-10-31T02:36:18;12.60;99.90
13389;DHT22;6764;53.250;10.410;2023-10-31T02:38:45;12.50;99.90
13389;DHT22;6764;53.250;10.410;2023-10-31T02:41:11;12.60;99.90
13389;DHT22;6764;53.250;10.410;2023-10-31T02:43:38;12.60;99.90
13389;DHT22;6764;53.250;10.410;2023-10-31T02:46:03;12.70;99.90
13389;DHT22;6764;53.250;10.410;2023-10-31T02:48:29;12.70;99.90
13389;DHT22;6764;53.250;10.410;2023-10-31T02:50:57;12.70;99.90
13389;DHT22;6764;53.250;10.410;2023-10-31T02:53:23;12.70;99.90
13389;DHT22;6764;53.250;10.410;2023-10-31T02:55:48;12.80;99.90
13389;DHT22;6764;53.250;10.410;2023-10-31T02:58:14;12.70;99.90
13389;DHT22;6764;53.250;10.410;2023-10-31T03:00:40;12.70;99.90
13389;DHT22;6764;53.250;10.410;2023-10-31T03:03:05;12.70;99.90
13389;DHT22;6764;53.250;10.410;2023-10-31T03:05:31;12.70;99.90
13389;DHT22;6764;53.250;10.410;2023-10-31T03:07:56;12.70;99.90
13389;DHT22;6764;53.250;10.410;2023-10-31T03:10:22;12.70;99.90
13389;DHT22;6764;53.250;10.410;2023-10-31T03:12:48;12.60;99.90
13389;DHT22;6764;53.250;10.410;2023-10-31T03:15:13;12.70;99.90
13389;DHT22;6764;53.250;10.410;2023-10-31T03:17:39;12.70;99.90
13389;DHT22;6764;53.250;10.410;2023-10-31T03:20:05;12.70;99.90
13389;DHT22;6764;53.250;10.410;2023-10-31T03:22:31;12.70;99.90
13389;DHT22;6764;53.250;10.410;2023-10-31T03:24:57;12.80;99.90
13389;DHT22;6764;53.250;10.410;2023-10-31T03:27:22;12.70;99.90
13389;DHT22;6764;53.250;10.410;2023-10-31T03:29:48;12.80;99.90
13389;DHT22;6764;53.250;10.410;2023-10-31T03:32:14;12.70;99.90
13389;DHT22;6764;53.250;10.410;2023-10-31T03:34:40;12.80;99.90
13389;DHT22;6764;53.250;10.410;2023-10-31T03:37:06;12.80;99.90
13389;DHT22;6764;53.250;10.410;2023-10-31T03:39:31;12.90;99.90
13389;DHT22;6764;53.250;10.410;2023-10-31T03:41:57;12.90;99.90
13389;DHT22;6764;53.250;10.410;2023-10-31T03:44:22;12.90;99.90
13389;DHT22;6764;53.250;10.410;2023-10-31T03:46:48;12.80;99.90
13389;DHT22;6764;53.250;10.410;2023-10-31T03:49:14;12.80;99.90
13389;DHT22;6764;53.250;10.410;2023-10-31T03:51:39;12.80;99.90
13389;DHT22;6764;53.250;10.410;2023-10-31T03:54:05;12.80;99.90
13389;DHT22;6764;53.250;10.410;2023-10-31T03:56:30;12.90;99.90
13389;DHT22;6764;53.250;10.410;2023-10-31T03:59:03;12.90;99.90
13389;DHT22;6764;53.250;10.410;2023-10-31T04:01:28;12.90;99.90
13389;DHT22;6764;53.250;10.410;2023-10-31T04:03:54;13.00;99.90
13389;DHT22;6764;53.250;10.410;2023-10-31T04:06:19;13.00;99.90
13389;DHT22;6764;53.250;10.410;2023-10-31T04:08:45;13.10;99.90
13389;DHT22;6764;53.250;10.410;2023-10-31T04:11:11;13.10;99.90
13389;DHT22;6764;53.250;10.410;2023-10-31T04:13:36;13.20;99.90
13389;DHT22;6764;53.250;10.410;2023-10-31T04:16:02;13.20;99.90
13389;DHT22;6764;53.250;10.410;2023-10-31T04:18:27;13.20;99.90
13389;DHT22;6764;53.250;10.410;2023-10-31T04:20:53;13.10;99.90
13389;DHT22;6764;53.250;10.410;2023-10-31T04:23:19;13.20;99.90
13389;DHT22;6764;53.250;10.410;2023-10-31T04:25:44;13.30;99.90
13389;DHT22;6764;53.250;10.410;2023-10-31T04:28:10;13.30;99.90
13389;DHT22;6764;53.250;10.410;2023-10-31T04:30:35;13.30;99.90
13389;DHT22;6764;53.250;10.410;2023-10-31T04:33:01;13.40;99.90
13389;DHT22;6764;53.250;10.410;2023-10-31T04:35:26;13.40;99.90
13389;DHT22;6764;53.250;10.410;2023-10-31T04:37:52;13.40;99.90
13389;DHT22;6764;53.250;10.410;2023-10-31T04:40:18;13.40;99.90
13389;DHT22;6764;53.250;10.410;2023-10-31T04:42:46;13.50;99.90
13389;DHT22;6764;53.250;10.410;2023-10-31T04:45:12;13.50;99.90
13389;DHT22;6764;53.250;10.410;2023-10-31T04:47:37;13.50;99.90
13389;DHT22;6764;53.250;10.410;2023-10-31T04:50:03;13.60;99.90
13389;DHT22;6764;53.250;10.410;2023-10-31T04:52:29;13.60;99.90
13389;DHT22;6764;53.250;10.410;2023-10-31T04:54:55;13.60;99.90
13389;DHT22;6764;53.250;10.410;2023-10-31T04:57:20;13.60;99.90
13389;DHT22;6764;53.250;10.410;2023-10-31T04:59:46;13.60;99.90
13389;DHT22;6764;53.250;10.410;2023-10-31T05:02:12;13.60;99.90
13389;DHT22;6764;53.250;10.410;2023-10-31T05:04:40;13.60;99.90
13389;DHT22;6764;53.250;10.410;2023-10-31T05:07:06;13.70;99.90
13389;DHT22;6764;53.250;10.410;2023-10-31T05:09:32;13.80;99.90
13389;DHT22;6764;53.250;10.410;2023-10-31T05:11:57;13.80;99.90
13389;DHT22;6764;53.250;10.410;2023-10-31T05:14:23;13.80;99.90
13389;DHT22;6764;53.250;10.410;2023-10-31T05:16:48;13.80;99.90
13389;DHT22;6764;53.250;10.410;2023-10-31T05:19:14;13.80;99.90
13389;DHT22;6764;53.250;10.410;2023-10-31T05:21:39;13.80;99.90
13389;DHT22;6764;53.250;10.410;2023-10-31T05:24:06;13.90;99.90
13389;DHT22;6764;53.250;10.410;2023-10-31T05:26:31;13.80;99.90
13389;DHT22;6764;53.250;10.410;2023-10-31T05:28:57;13.80;99.90
13389;DHT22;6764;53.250;10.410;2023-10-31T05:31:24;13.80;99.90
13389;DHT22;6764;53.250;10.410;2023-10-31T05:33:50;13.80;99.90
13389;DHT22;6764;53.250;10.410;2023-10-31T05:36:19;13.70;99.90
13389;DHT22;6764;53.250;10.410;2023-10-31T05:38:45;13.80;99.90
13389;DHT22;6764;53.250;10.410;2023-10-31T05:41:11;13.80;99.90
13389;DHT22;6764;53.250;10.410;2023-10-31T05:43:36;13.80;99.90
13389;DHT22;6764;53.250;10.410;2023-10-31T05:46:02;13.70;99.90
13389;DHT22;6764;53.250;10.410;2023-10-31T05:48:27;13.80;99.90
13389;DHT22;6764;53.250;10.410;2023-10-31T05:50:53;13.80;99.90
13389;DHT22;6764;53.250;10.410;2023-10-31T05:53:18;13.80;99.90
13389;DHT22;6764;53.250;10.410;2023-10-31T05:55:44;13.90;99.90
13389;DHT22;6764;53.250;10.410;2023-10-31T05:58:10;13.80;99.90
13389;DHT22;6764;53.250;10.410;2023-10-31T06:00:36;13.80;99.90
13389;DHT22;6764;53.250;10.410;2023-10-31T06:03:03;13.80;99.90
13389;DHT22;6764;53.250;10.410;2023-10-31T06:05:28;13.80;99.90
13389;DHT22;6764;53.250;10.410;2023-10-31T06:07:54;13.80;99.90
13389;DHT22;6764;53.250;10.410;2023-10-31T06:10:20;13.80;99.90
13389;DHT22;6764;53.250;10.410;2023-10-31T06:12:47;13.70;99.90
13389;DHT22;6764;53.250;10.410;2023-10-31T06:15:12;13.70;99.90
13389;DHT22;6764;53.250;10.410;2023-10-31T06:17:38;13.70;99.90
13389;DHT22;6764;53.250;10.410;2023-10-31T06:20:07;13.60;99.90
13389;DHT22;6764;53.250;10.410;2023-10-31T06:22:32;13.60;99.90
13389;DHT22;6764;53.250;10.410;2023-10-31T06:24:58;13.50;99.90
13389;DHT22;6764;53.250;10.410;2023-10-31T06:27:23;13.40;99.90
13389;DHT22;6764;53.250;10.410;2023-10-31T06:29:49;13.40;99.90
13389;DHT22;6764;53.250;10.410;2023-10-31T06:32:15;13.30;99.90
13389;DHT22;6764;53.250;10.410;2023-10-31T06:34:40;13.20;99.90
13389;DHT22;6764;53.250;10.410;2023-10-31T06:37:06;13.20;99.90
13389;DHT22;6764;53.250;10.410;2023-10-31T06:39:31;13.00;99.90
13389;DHT22;6764;53.250;10.410;2023-10-31T06:41:58;13.00;99.90
13389;DHT22;6764;53.250;10.410;2023-10-31T06:44:23;13.10;99.90
13389;DHT22;6764;53.250;10.410;2023-10-31T06:46:49;13.10;99.90
13389;DHT22;6764;53.250;10.410;2023-10-31T06:49:15;13.10;99.90
13389;DHT22;6764;53.250;10.410;2023-10-31T06:51:41;13.00;99.90
13389;DHT22;6764;53.250;10.410;2023-10-31T06:54:06;13.00;99.90
13389;DHT22;6764;53.250;10.410;2023-10-31T06:56:32;12.90;99.90
13389;DHT22;6764;53.250;10.410;2023-10-31T06:58:58;12.70;99.90
13389;DHT22;6764;53.250;10.410;2023-10-31T07:01:23;12.60;99.90
13389;DHT22;6764;53.250;10.410;2023-10-31T07:03:49;12.50;99.90
13389;DHT22;6764;53.250;10.410;2023-10-31T07:06:15;12.30;99.90
13389;DHT22;6764;53.250;10.410;2023-10-31T07:08:41;12.20;99.90
13389;DHT22;6764;53.250;10.410;2023-10-31T07:11:06;12.20;99.90
13389;DHT22;6764;53.250;10.410;2023-10-31T07:13:32;12.20;99.90
13389;DHT22;6764;53.250;10.410;2023-10-31T07:15:57;12.20;99.90
13389;DHT22;6764;53.250;10.410;2023-10-31T07:18:23;12.20;99.90
13389;DHT22;6764;53.250;10.410;2023-10-31T07:20:49;12.10;99.90
13389;DHT22;6764;53.250;10.410;2023-10-31T07:23:14;12.10;99.90
13389;DHT22;6764;53.250;10.410;2023-10-31T07:25:40;12.10;99.90
13389;DHT22;6764;53.250;10.410;2023-10-31T07:28:06;12.10;99.90
13389;DHT22;6764;53.250;10.410;2023-10-31T07:30:34;12.00;99.90
13389;DHT22;6764;53.250;10.410;2023-10-31T07:33:00;12.10;99.90
13389;DHT22;6764;53.250;10.410;2023-10-31T07:35:25;12.00;99.90
13389;DHT22;6764;53.250;10.410;2023-10-31T07:37:51;12.00;99.90
13389;DHT22;6764;53.250;10.410;2023-10-31T07:40:17;11.90;99.90
13389;DHT22;6764;53.250;10.410;2023-10-31T07:42:42;11.90;99.90
13389;DHT22;6764;53.250;10.410;2023-10-31T07:45:08;11.90;99.90
13389;DHT22;6764;53.250;10.410;2023-10-31T07:47:34;11.90;99.90
13389;DHT22;6764;53.250;10.410;2023-10-31T07:49:59;11.90;99.90
13389;DHT22;6764;53.250;10.410;2023-10-31T07:52:25;11.90;99.90
13389;DHT22;6764;53.250;10.410;2023-10-31T07:54:51;11.90;99.90
13389;DHT22;6764;53.250;10.410;2023-10-31T07:57:17;12.00;99.90
13389;DHT22;6764;53.250;10.410;2023-10-31T07:59:43;12.00;99.90
13389;DHT22;6764;53.250;10.410;2023-10-31T08:02:08;12.00;99.90
13389;DHT22;6764;53.250;10.410;2023-10-31T08:04:34;12.00;99.90
13389;DHT22;6764;53.250;10.410;2023-10-31T08:06:59;12.00;99.90
13389;DHT22;6764;53.250;10.410;2023-10-31T08:09:25;12.00;99.90
13389;DHT22;6764;53.250;10.410;2023-10-31T08:11:51;11.90;99.90
13389;DHT22;6764;53.250;10.410;2023-10-31T08:14:16;11.90;99.90
13389;DHT22;6764;53.250;10.410;2023-10-31T08:16:42;11.90;99.90
13389;DHT22;6764;53.250;10.410;2023-10-31T08:19:08;12.00;99.90
13389;DHT22;6764;53.250;10.410;2023-10-31T08:21:33;11.90;99.90
13389;DHT22;6764;53.250;10.410;2023-10-31T08:24:04;11.90;99.90
13389;DHT22;6764;53.250;10.410;2023-10-31T08:26:31;11.80;99.90
13389;DHT22;6764;53.250;10.410;2023-10-31T08:28:57;11.80;99.90
13389;DHT22;6764;53.250;10.410;2023-10-31T08:31:22;11.80;99.90
13389;DHT22;6764;53.250;10.410;2023-10-31T08:33:48;11.80;99.90
13389;DHT22;6764;53.250;10.410;2023-10-31T08:36:14;11.90;99.90
13389;DHT22;6764;53.250;10.410;2023-10-31T08:38:40;11.80;99.90
13389;DHT22;6764;53.250;10.410;2023-10-31T08:41:05;11.80;99.90
13389;DHT22;6764;53.250;10.410;2023-10-31T08:43:31;11.80;99.90
13389;DHT22;6764;53.250;10.410;2023-10-31T08:45:56;11.80;99.90
13389;DHT22;6764;53.250;10.410;2023-10-31T08:48:22;11.80;99.90
13389;DHT22;6764;53.250;10.410;2023-10-31T08:50:48;11.80;99.90
13389;DHT22;6764;53.250;10.410;2023-10-31T08:53:14;11.90;99.90
13389;DHT22;6764;53.250;10.410;2023-10-31T08:55:40;11.80;99.90
13389;DHT22;6764;53.250;10.410;2023-10-31T08:58:12;11.80;99.90
13389;DHT22;6764;53.250;10.410;2023-10-31T09:00:42;11.80;99.90
13389;DHT22;6764;53.250;10.410;2023-10-31T09:03:08;11.70;99.90
13389;DHT22;6764;53.250;10.410;2023-10-31T09:05:34;11.70;99.90
13389;DHT22;6764;53.250;10.410;2023-10-31T09:08:00;11.60;99.90
13389;DHT22;6764;53.250;10.410;2023-10-31T09:10:25;11.60;99.90
13389;DHT22;6764;53.250;10.410;2023-10-31T09:12:51;11.70;99.90
13389;DHT22;6764;53.250;10.410;2023-10-31T09:15:17;11.70;99.90
13389;DHT22;6764;53.250;10.410;2023-10-31T09:17:44;11.70;99.90
13389;DHT22;6764;53.250;10.410;2023-10-31T09:20:10;11.70;99.90
13389;DHT22;6764;53.250;10.410;2023-10-31T09:22:37;11.60;99.90
13389;DHT22;6764;53.250;10.410;2023-10-31T09:25:02;11.60;99.90
13389;DHT22;6764;53.250;10.410;2023-10-31T09:27:28;11.60;99.90
13389;DHT22;6764;53.250;10.410;2023-10-31T09:29:54;11.60;99.90
13389;DHT22;6764;53.250;10.410;2023-10-31T09:32:19;11.60;99.90
13389;DHT22;6764;53.250;10.410;2023-10-31T09:34:45;11.60;99.90
13389;DHT22;6764;53.250;10.410;2023-10-31T09:37:11;11.60;99.90
13389;DHT22;6764;53.250;10.410;2023-10-31T09:39:36;11.70;99.90
13389;DHT22;6764;53.250;10.410;2023-10-31T09:42:02;11.80;99.90
13389;DHT22;6764;53.250;10.410;2023-10-31T09:44:28;11.70;99.90
13389;DHT22;6764;53.250;10.410;2023-10-31T09:46:53;11.80;99.90
13389;DHT22;6764;53.250;10.410;2023-10-31T09:49:19;11.80;99.90
13389;DHT22;6764;53.250;10.410;2023-10-31T09:51:46;11.80;99.90
13389;DHT22;6764;53.250;10.410;2023-10-31T09:54:13;11.90;99.90
13389;DHT22;6764;53.250;10.410;2023-10-31T09:56:41;11.90;99.90
13389;DHT22;6764;53.250;10.410;2023-10-31T09:59:07;11.90;99.90
13389;DHT22;6764;53.250;10.410;2023-10-31T10:01:33;11.90;99.90
13389;DHT22;6764;53.250;10.410;2023-10-31T10:03:59;11.90;99.90
13389;DHT22;6764;53.250;10.410;2023-10-31T10:06:25;11.90;99.90
13389;DHT22;6764;53.250;10.410;2023-10-31T10:08:51;11.90;99.90
13389;DHT22;6764;53.250;10.410;2023-10-31T10:11:17;11.90;99.90
13389;DHT22;6764;53.250;10.410;2023-10-31T10:13:43;11.90;99.90
13389;DHT22;6764;53.250;10.410;2023-10-31T10:16:09;12.00;99.90
13389;DHT22;6764;53.250;10.410;2023-10-31T10:18:35;12.00;99.90
13389;DHT22;6764;53.250;10.410;2023-10-31T10:21:05;12.10;99.90
13389;DHT22;6764;53.250;10.410;2023-10-31T10:23:32;12.00;99.90
13389;DHT22;6764;53.250;10.410;2023-10-31T10:25:59;12.00;99.90
13389;DHT22;6764;53.250;10.410;2023-10-31T10:28:26;12.00;99.90
13389;DHT22;6764;53.250;10.410;2023-10-31T10:30:53;11.90;99.90
13389;DHT22;6764;53.250;10.410;2023-10-31T10:33:22;12.00;99.90
13389;DHT22;6764;53.250;10.410;2023-10-31T10:35:50;12.10;99.90
13389;DHT22;6764;53.250;10.410;2023-10-31T10:38:18;12.20;99.90
13389;DHT22;6764;53.250;10.410;2023-10-31T10:40:46;12.30;99.90
13389;DHT22;6764;53.250;10.410;2023-10-31T10:43:22;12.20;99.90
13389;DHT22;6764;53.250;10.410;2023-10-31T10:45:54;12.30;99.90
13389;DHT22;6764;53.250;10.410;2023-10-31T10:48:24;12.30;99.90
13389;DHT22;6764;53.250;10.410;2023-10-31T10:50:57;12.50;99.90
13389;DHT22;6764;53.250;10.410;2023-10-31T10:53:26;12.70;99.90
13389;DHT22;6764;53.250;10.410;2023-10-31T10:56:00;12.70;99.90
13389;DHT22;6764;53.250;10.410;2023-10-31T11:01:31;12.70;99.90
13389;DHT22;6764;53.250;10.410;2023-10-31T11:03:56;12.70;99.90
13389;DHT22;6764;53.250;10.410;2023-10-31T11:06:22;12.70;99.90
13389;DHT22;6764;53.250;10.410;2023-10-31T11:08:49;12.70;99.90
13389;DHT22;6764;53.250;10.410;2023-10-31T11:11:19;13.00;99.90
13389;DHT22;6764;53.250;10.410;2023-10-31T11:13:45;13.00;99.90
13389;DHT22;6764;53.250;10.410;2023-10-31T11:16:20;13.10;99.90
13389;DHT22;6764;53.250;10.410;2023-10-31T11:18:48;13.10;99.90
13389;DHT22;6764;53.250;10.410;2023-10-31T11:21:13;13.10;99.90
13389;DHT22;6764;53.250;10.410;2023-10-31T11:23:40;13.00;99.90
13389;DHT22;6764;53.250;10.410;2023-10-31T11:26:10;13.00;99.90
13389;DHT22;6764;53.250;10.410;2023-10-31T11:28:36;12.90;99.90
13389;DHT22;6764;53.250;10.410;2023-10-31T11:31:01;12.80;99.90
13389;DHT22;6764;53.250;10.410;2023-10-31T11:33:28;12.70;99.90
13389;DHT22;6764;53.250;10.410;2023-10-31T11:36:01;12.60;99.90
13389;DHT22;6764;53.250;10.410;2023-10-31T11:38:34;12.60;99.90
13389;DHT22;6764;53.250;10.410;2023-10-31T11:41:02;12.70;99.90
13389;DHT22;6764;53.250;10.410;2023-10-31T11:46:06;12.50;99.90
13389;DHT22;6764;53.250;10.410;2023-10-31T11:48:51;12.50;99.90
13389;DHT22;6764;53.250;10.410;2023-10-31T11:51:17;12.50;99.90
13389;DHT22;6764;53.250;10.410;2023-10-31T11:53:50;12.50;99.90
13389;DHT22;6764;53.250;10.410;2023-10-31T11:56:16;12.50;99.90
13389;DHT22;6764;53.250;10.410;2023-10-31T11:58:42;12.60;99.90
13389;DHT22;6764;53.250;10.410;2023-10-31T12:01:08;12.60;99.90
13389;DHT22;6764;53.250;10.410;2023-10-31T12:03:43;12.70;99.90
13389;DHT22;6764;53.250;10.410;2023-10-31T12:06:14;12.60;99.90
13389;DHT22;6764;53.250;10.410;2023-10-31T12:08:42;12.50;99.90
13389;DHT22;6764;53.250;10.410;2023-10-31T12:11:12;12.50;99.90
13389;DHT22;6764;53.250;10.410;2023-10-31T12:16:18;12.60;99.90
13389;DHT22;6764;53.250;10.410;2023-10-31T12:18:43;12.50;99.90
13389;DHT22;6764;53.250;10.410;2023-10-31T12:21:09;12.40;99.90
13389;DHT22;6764;53.250;10.410;2023-10-31T12:23:39;12.60;99.90
13389;DHT22;6764;53.250;10.410;2023-10-31T12:26:05;12.50;99.90
13389;DHT22;6764;53.250;10.410;2023-10-31T12:28:30;12.60;99.90
13389;DHT22;6764;53.250;10.410;2023-10-31T12:30:56;12.70;99.90
13389;DHT22;6764;53.250;10.410;2023-10-31T12:33:28;12.70;99.90
13389;DHT22;6764;53.250;10.410;2023-10-31T12:35:58;12.70;99.90
13389;DHT22;6764;53.250;10.410;2023-10-31T12:38:24;12.80;99.90
13389;DHT22;6764;53.250;10.410;2023-10-31T12:40:51;12.70;99.90
13389;DHT22;6764;53.250;10.410;2023-10-31T12:43:17;12.70;99.90
13389;DHT22;6764;53.250;10.410;2023-10-31T12:45:43;12.70;99.90
13389;DHT22;6764;53.250;10.410;2023-10-31T12:48:09;12.70;99.90
13389;DHT22;6764;53.250;10.410;2023-10-31T12:50:37;12.70;99.90
13389;DHT22;6764;53.250;10.410;2023-10-31T12:53:03;12.70;99.90
13389;DHT22;6764;53.250;10.410;2023-10-31T12:55:30;12.80;99.90
13389;DHT22;6764;53.250;10.410;2023-10-31T12:57:57;12.70;99.90
13389;DHT22;6764;53.250;10.410;2023-10-31T13:00:33;12.70;99.90
13389;DHT22;6764;53.250;10.410;2023-10-31T13:03:08;12.60;99.90
13389;DHT22;6764;53.250;10.410;2023-10-31T13:05:35;12.60;99.90
13389;DHT22;6764;53.250;10.410;2023-10-31T13:08:01;12.50;99.90
13389;DHT22;6764;53.250;10.410;2023-10-31T13:10:30;12.40;99.90
13389;DHT22;6764;53.250;10.410;2023-10-31T13:12:58;12.40;99.90
13389;DHT22;6764;53.250;10.410;2023-10-31T13:15:24;12.40;99.90
13389;DHT22;6764;53.250;10.410;2023-10-31T13:17:52;12.40;99.90
13389;DHT22;6764;53.250;10.410;2023-10-31T13:20:19;12.40;99.90
13389;DHT22;6764;53.250;10.410;2023-10-31T13:22:45;12.50;99.90
13389;DHT22;6764;53.250;10.410;2023-10-31T13:25:13;12.60;99.90
13389;DHT22;6764;53.250;10.410;2023-10-31T13:27:46;12.60;99.90
13389;DHT22;6764;53.250;10.410;2023-10-31T13:30:16;12.70;99.90
13389;DHT22;6764;53.250;10.410;2023-10-31T13:32:43;12.70;99.90
13389;DHT22;6764;53.250;10.410;2023-10-31T13:35:09;12.80;99.90
13389;DHT22;6764;53.250;10.410;2023-10-31T13:37:36;12.70;99.90
13389;DHT22;6764;53.250;10.410;2023-10-31T13:40:03;12.70;99.90
13389;DHT22;6764;53.250;10.410;2023-10-31T13:42:28;12.80;99.90
13389;DHT22;6764;53.250;10.410;2023-10-31T13:44:54;12.80;99.90
13389;DHT22;6764;53.250;10.410;2023-10-31T13:47:20;12.90;99.90
13389;DHT22;6764;53.250;10.410;2023-10-31T13:49:46;13.00;99.90
13389;DHT22;6764;53.250;10.410;2023-10-31T13:52:12;12.80;99.90
13389;DHT22;6764;53.250;10.410;2023-10-31T13:54:37;12.80;99.90
13389;DHT22;6764;53.250;10.410;2023-10-31T13:57:03;12.80;99.90
13389;DHT22;6764;53.250;10.410;2023-10-31T13:59:29;12.70;99.90
13389;DHT22;6764;53.250;10.410;2023-10-31T14:01:55;12.80;99.90
13389;DHT22;6764;53.250;10.410;2023-10-31T14:04:20;12.90;99.90
13389;DHT22;6764;53.250;10.410;2023-10-31T14:06:46;12.90;99.90
13389;DHT22;6764;53.250;10.410;2023-10-31T14:09:12;12.90;99.90
13389;DHT22;6764;53.250;10.410;2023-10-31T14:11:39;13.00;99.90
13389;DHT22;6764;53.250;10.410;2023-10-31T14:14:05;12.90;99.90
13389;DHT22;6764;53.250;10.410;2023-10-31T14:16:39;12.70;99.90
13389;DHT22;6764;53.250;10.410;2023-10-31T14:19:05;12.60;99.90
13389;DHT22;6764;53.250;10.410;2023-10-31T14:21:35;12.70;99.90
13389;DHT22;6764;53.250;10.410;2023-10-31T14:24:02;12.80;99.90
13389;DHT22;6764;53.250;10.410;2023-10-31T14:26:29;12.90;99.90
13389;DHT22;6764;53.250;10.410;2023-10-31T14:28:55;13.00;99.90
13389;DHT22;6764;53.250;10.410;2023-10-31T14:31:21;12.90;99.90
13389;DHT22;6764;53.250;10.410;2023-10-31T14:33:47;13.00;99.90
13389;DHT22;6764;53.250;10.410;2023-10-31T14:36:13;13.00;99.90
13389;DHT22;6764;53.250;10.410;2023-10-31T14:38:39;12.90;99.90
13389;DHT22;6764;53.250;10.410;2023-10-31T14:41:06;12.60;99.90
13389;DHT22;6764;53.250;10.410;2023-10-31T14:43:33;12.50;99.90
13389;DHT22;6764;53.250;10.410;2023-10-31T14:45:59;12.50;99.90
13389;DHT22;6764;53.250;10.410;2023-10-31T14:48:25;12.50;99.90
13389;DHT22;6764;53.250;10.410;2023-10-31T14:50:51;12.50;99.90
13389;DHT22;6764;53.250;10.410;2023-10-31T14:53:17;12.50;99.90
13389;DHT22;6764;53.250;10.410;2023-10-31T14:55:46;12.40;99.90
13389;DHT22;6764;53.250;10.410;2023-10-31T14:58:12;12.40;99.90
13389;DHT22;6764;53.250;10.410;2023-10-31T15:00:39;12.20;99.90
13389;DHT22;6764;53.250;10.410;2023-10-31T15:03:05;12.00;99.90
13389;DHT22;6764;53.250;10.410;2023-10-31T15:05:30;11.50;99.90
13389;DHT22;6764;53.250;10.410;2023-10-31T15:07:57;11.50;99.90
13389;DHT22;6764;53.250;10.410;2023-10-31T15:10:26;11.30;99.90
13389;DHT22;6764;53.250;10.410;2023-10-31T15:12:54;10.90;99.90
13389;DHT22;6764;53.250;10.410;2023-10-31T15:15:19;10.70;99.90
13389;DHT22;6764;53.250;10.410;2023-10-31T15:17:46;10.50;99.90
13389;DHT22;6764;53.250;10.410;2023-10-31T15:20:19;10.40;99.90
13389;DHT22;6764;53.250;10.410;2023-10-31T15:22:45;10.30;99.90
13389;DHT22;6764;53.250;10.410;2023-10-31T15:25:11;10.20;99.90
13389;DHT22;6764;53.250;10.410;2023-10-31T15:27:37;10.10;99.90
13389;DHT22;6764;53.250;10.410;2023-10-31T15:30:07;10.00;99.90
13389;DHT22;6764;53.250;10.410;2023-10-31T15:32:36;10.00;99.90